Time;durP1;ratioP1;P1;durP2;ratioP2;P2;SDS_P1;SDS_P2;PMS_P1;PMS_P2;Temp;Humidity;BMP_temperature;BMP_pressure;BME280_temperature;BME280_humidity;BME280_pressure;Samples;Min_cycle;Max_cycle;Signal;HPM_P1;HPM_P2
2022/01/14 00:02:24;;;;;;;44.03;17.45;;;;;;;3.86;100.00;102523.34;5228325;28;20028;-77
2022/01/14 00:04:54;;;;;;;44.78;16.60;;;;;;;3.74;100.00;102518.78;5233989;28;20033;-77
2022/01/14 00:07:26;;;;;;;46.08;17.40;;;;;;;3.75;100.00;102519.66;5224747;28;20029;-78
2022/01/14 00:09:56;;;;;;;46.03;17.67;;;;;;;3.79;100.00;102519.75;5226558;28;20070;-78
2022/01/14 00:12:35;;;;;;;46.08;18.58;;;;;;;3.69;100.00;102525.56;5239181;28;20085;-78
2022/01/14 00:15:24;;;;;;;48.65;17.70;;;;;;;3.77;100.00;102513.66;5234793;28;20025;-78
2022/01/14 00:17:54;;;;;;;45.83;17.88;;;;;;;3.77;100.00;102508.50;5223426;28;20028;-78
2022/01/14 00:20:24;;;;;;;48.58;18.05;;;;;;;3.80;100.00;102511.13;5237045;28;20025;-77
2022/01/14 00:22:55;;;;;;;46.30;16.88;;;;;;;3.84;100.00;102507.81;5237577;28;20032;-77
2022/01/14 00:34:01;;;;;;;47.80;17.97;;;;;;;3.72;100.00;102506.63;5199159;28;20033;-78
2022/01/14 00:36:31;;;;;;;45.60;17.67;;;;;;;3.75;100.00;102510.16;5226818;28;20040;-77
2022/01/14 00:39:02;;;;;;;47.30;16.70;;;;;;;3.69;100.00;102499.69;5225684;28;20043;-77
2022/01/14 00:41:35;;;;;;;48.92;18.25;;;;;;;3.68;100.00;102505.72;5231362;28;20407;-77
2022/01/14 00:44:10;;;;;;;47.33;17.38;;;;;;;3.65;100.00;102508.19;5236405;28;20540;-77
2022/01/14 00:46:43;;;;;;;49.38;17.88;;;;;;;3.70;100.00;102496.28;5233280;28;20029;-78
2022/01/14 00:49:15;;;;;;;50.20;17.63;;;;;;;3.59;100.00;102496.88;5236303;28;20028;-78
2022/01/14 00:51:45;;;;;;;46.20;17.60;;;;;;;3.67;100.00;102497.91;5232737;28;20104;-79
2022/01/14 00:54:17;;;;;;;52.22;18.08;;;;;;;3.55;100.00;102494.19;5232604;28;20034;-77
2022/01/14 00:57:01;;;;;;;46.33;17.35;;;;;;;3.74;100.00;102498.09;5231992;28;20462;-78
2022/01/14 00:59:32;;;;;;;50.75;18.30;;;;;;;3.63;100.00;102499.53;5226949;28;20024;-78
2022/01/14 01:02:03;;;;;;;40.90;16.77;;;;;;;3.60;100.00;102499.47;5232127;28;20036;-78
2022/01/14 01:04:38;;;;;;;42.33;16.73;;;;;;;3.65;100.00;102495.28;5231513;28;20036;-77
2022/01/14 01:07:09;;;;;;;39.17;16.52;;;;;;;3.58;100.00;102501.16;5226033;28;20040;-77
2022/01/14 01:09:46;;;;;;;43.55;16.98;;;;;;;3.63;100.00;102506.44;5233370;28;20478;-78
2022/01/14 01:12:32;;;;;;;41.35;16.02;;;;;;;3.69;100.00;102497.13;5224445;28;20084;-77
2022/01/14 01:15:08;;;;;;;48.00;17.13;;;;;;;3.68;100.00;102497.97;5227074;28;20054;-78
2022/01/14 01:17:39;;;;;;;43.20;16.23;;;;;;;3.76;100.00;102501.56;5238532;28;20029;-78
2022/01/14 01:20:16;;;;;;;39.08;16.55;;;;;;;3.67;100.00;102496.22;5237121;28;20028;-78
2022/01/14 01:22:53;;;;;;;47.22;17.05;;;;;;;3.64;100.00;102498.69;5235787;28;20120;-77
2022/01/14 01:25:27;;;;;;;46.30;16.75;;;;;;;3.74;100.00;102503.25;5235968;28;20029;-78
2022/01/14 01:27:58;;;;;;;44.63;16.92;;;;;;;3.72;100.00;102499.78;5236227;28;20028;-78
2022/01/14 01:33:06;;;;;;;42.58;16.23;;;;;;;3.74;100.00;102508.44;5234711;28;20135;-78
2022/01/14 01:35:36;;;;;;;;;;;;;;;3.76;100.00;102496.41;5227701;28;20033;-78
2022/01/14 01:38:06;;;;;;;38.53;15.67;;;;;;;3.73;100.00;102493.75;5227284;28;20291;-78
2022/01/14 01:40:37;;;;;;;40.50;15.57;;;;;;;3.73;100.00;102495.44;5232399;28;20302;-78
2022/01/14 01:43:09;;;;;;;40.83;15.55;;;;;;;3.69;100.00;102491.94;5236715;28;20478;-78
2022/01/14 01:45:41;;;;;;;42.60;16.05;;;;;;;3.74;100.00;102492.91;5229826;28;20037;-77
2022/01/14 01:48:11;;;;;;;40.97;16.02;;;;;;;3.70;100.00;102496.28;5226600;28;20033;-77
2022/01/14 01:50:41;;;;;;;40.90;16.40;;;;;;;3.70;100.00;102483.34;5238696;28;20478;-78
2022/01/14 01:53:12;;;;;;;44.65;17.50;;;;;;;3.60;100.00;102478.78;5236514;28;20035;-78
2022/01/14 01:55:43;;;;;;;42.05;17.23;;;;;;;3.71;100.00;102477.34;5241915;28;20027;-77
2022/01/14 01:58:13;;;;;;;38.92;15.73;;;;;;;3.72;100.00;102466.16;5238712;28;20390;-78
2022/01/14 02:00:43;;;;;;;42.88;16.15;;;;;;;3.68;100.00;102461.75;5235690;28;20517;-78
2022/01/14 02:03:14;;;;;;;46.40;16.80;;;;;;;3.74;100.00;102467.06;5229960;28;20108;-77
2022/01/14 02:05:45;;;;;;;41.75;15.23;;;;;;;3.71;100.00;102460.94;5225417;28;20060;-77
2022/01/14 02:08:15;;;;;;;42.80;16.42;;;;;;;3.72;100.00;102460.97;5228100;28;20473;-78
2022/01/14 02:10:46;;;;;;;43.58;16.85;;;;;;;3.72;100.00;102458.41;5242569;28;20111;-78
2022/01/14 02:13:16;;;;;;;45.40;17.80;;;;;;;3.74;100.00;102456.72;5237377;28;20394;-77
2022/01/14 02:23:51;;;;;;;45.22;17.10;;;;;;;3.72;100.00;102453.22;5229049;28;20082;-77
2022/01/14 02:26:22;;;;;;;41.63;16.17;;;;;;;3.67;100.00;102449.69;5238451;28;20028;-78
2022/01/14 02:28:53;;;;;;;44.75;16.60;;;;;;;3.66;100.00;102450.53;5234421;28;20510;-78
2022/01/14 02:31:23;;;;;;;44.08;17.42;;;;;;;3.65;100.00;102445.31;5237949;28;20051;-78
2022/01/14 02:39:18;;;;;;;43.10;15.25;;;;;;;3.58;100.00;102442.53;5191451;28;20448;-78
2022/01/14 02:41:51;;;;;;;43.30;17.85;;;;;;;3.62;100.00;102451.25;5192734;28;20037;-84
2022/01/14 02:44:27;;;;;;;47.90;16.83;;;;;;;3.65;100.00;102447.88;5196225;28;20044;-78
2022/01/14 02:47:04;;;;;;;45.72;17.08;;;;;;;3.61;100.00;102444.34;5211071;28;20022;-79
2022/01/14 02:49:36;;;;;;;47.42;17.92;;;;;;;3.74;100.00;102448.97;5207370;28;20168;-82
2022/01/14 02:52:08;;;;;;;47.05;17.15;;;;;;;3.69;100.00;102450.59;5213306;28;20029;-82
2022/01/14 02:55:02;;;;;;;47.08;17.73;;;;;;;3.68;100.00;102445.38;5211563;28;20376;-82
2022/01/14 02:57:33;;;;;;;42.30;16.88;;;;;;;3.69;100.00;102448.00;5206226;28;20135;-82
2022/01/14 03:00:04;;;;;;;43.13;16.63;;;;;;;3.65;100.00;102441.00;5210091;28;20032;-79
2022/01/14 03:02:36;;;;;;;53.05;18.05;;;;;;;3.73;100.00;102446.31;5204291;28;20088;-84
2022/01/14 03:05:07;;;;;;;46.90;17.92;;;;;;;3.70;100.00;102449.75;5206106;28;20025;-78
2022/01/14 03:07:40;;;;;;;45.88;16.65;;;;;;;3.72;100.00;102442.00;5216801;28;20037;-81
2022/01/14 03:10:13;;;;;;;45.03;17.88;;;;;;;3.70;100.00;102443.69;5211333;28;20055;-79
2022/01/14 03:12:45;;;;;;;48.53;17.48;;;;;;;3.72;100.00;102442.88;5212010;28;20025;-79
2022/01/14 03:15:16;;;;;;;44.67;17.33;;;;;;;3.73;100.00;102441.16;5210733;28;20079;-83
2022/01/14 03:17:46;;;;;;;45.22;17.33;;;;;;;3.71;100.00;102438.56;5211754;28;20582;-84
2022/01/14 03:23:07;;;;;;;44.75;16.15;;;;;;;3.72;100.00;102436.81;5206782;28;20088;-84
2022/01/14 03:25:51;;;;;;;44.58;18.13;;;;;;;3.74;100.00;102423.09;5212494;28;20457;-83
2022/01/14 03:28:23;;;;;;;46.13;17.13;;;;;;;3.58;100.00;102421.88;5212279;28;20036;-78
2022/01/14 03:30:53;;;;;;;43.78;17.50;;;;;;;3.58;100.00;102426.19;5210193;28;20021;-78
2022/01/14 03:33:24;;;;;;;45.15;18.20;;;;;;;3.75;100.00;102416.25;5193981;28;20056;-83
2022/01/14 03:35:54;;;;;;;39.28;16.15;;;;;;;3.71;100.00;102423.03;5210131;28;20035;-85
2022/01/14 03:38:24;;;;;;;42.45;17.35;;;;;;;3.63;100.00;102427.16;5200866;28;20032;-81
2022/01/14 03:40:55;;;;;;;42.22;17.20;;;;;;;3.68;100.00;102423.00;5212326;28;20029;-79
2022/01/14 03:43:25;;;;;;;42.90;16.30;;;;;;;3.75;100.00;102416.25;5209662;28;20041;-78
2022/01/14 03:45:56;;;;;;;39.55;15.90;;;;;;;3.70;100.00;102407.47;5212217;28;20033;-82
2022/01/14 03:48:26;;;;;;;43.33;16.45;;;;;;;3.70;100.00;102416.13;5209321;28;20422;-78
2022/01/14 03:50:56;;;;;;;36.65;16.20;;;;;;;3.73;100.00;102421.38;5212341;28;20075;-80
2022/01/14 03:53:27;;;;;;;42.30;17.17;;;;;;;3.68;100.00;102415.22;5199608;28;20033;-81
2022/01/14 03:55:57;;;;;;;39.72;16.30;;;;;;;3.77;100.00;102410.22;5212713;28;20025;-82
2022/01/14 03:58:27;;;;;;;41.33;16.08;;;;;;;3.71;100.00;102415.28;5209079;28;20116;-80
2022/01/14 04:00:58;;;;;;;45.30;16.50;;;;;;;3.72;100.00;102401.53;5209099;28;20033;-81
2022/01/14 04:03:28;;;;;;;38.83;16.40;;;;;;;3.73;100.00;102400.69;5200110;28;20626;-79
2022/01/14 04:05:58;;;;;;;43.75;16.20;;;;;;;3.69;100.00;102396.28;5210125;28;20116;-82
2022/01/14 04:08:29;;;;;;;43.38;16.20;;;;;;;3.71;100.00;102394.59;5215670;28;20036;-81
2022/01/14 04:11:02;;;;;;;39.47;15.43;;;;;;;3.72;100.00;102396.34;5208457;28;20033;-84
2022/01/14 04:13:49;;;;;;;37.38;15.90;;;;;;;3.77;100.00;102386.97;5199482;28;20298;-81
2022/01/14 04:16:23;;;;;;;38.83;16.02;;;;;;;3.72;100.00;102386.00;5211310;28;20028;-79
2022/01/14 04:18:53;;;;;;;41.45;15.90;;;;;;;3.70;100.00;102385.09;5209146;28;20066;-82
2022/01/14 04:21:26;;;;;;;44.50;16.75;;;;;;;3.71;100.00;102384.25;5211870;28;20052;-84
2022/01/14 04:23:56;;;;;;;40.70;15.35;;;;;;;3.76;100.00;102384.38;5198828;28;20034;-82
2022/01/14 04:26:26;;;;;;;40.08;16.13;;;;;;;3.75;100.00;102378.31;5212052;28;20047;-80
2022/01/14 04:28:56;;;;;;;42.70;16.38;;;;;;;3.77;100.00;102376.63;5208858;28;20029;-79
2022/01/14 04:31:27;;;;;;;39.70;15.50;;;;;;;3.73;100.00;102374.81;5208318;28;20071;-81
2022/01/14 04:33:57;;;;;;;39.42;16.00;;;;;;;3.77;100.00;102366.28;5201537;28;20390;-79
2022/01/14 04:36:27;;;;;;;37.63;16.10;;;;;;;3.79;100.00;102364.59;5213088;28;20033;-82
2022/01/14 04:38:58;;;;;;;33.05;14.18;;;;;;;3.79;100.00;102376.66;5212053;28;20032;-78
2022/01/14 04:41:28;;;;;;;38.90;16.23;;;;;;;3.84;100.00;102365.59;5211573;28;20164;-84
2022/01/14 04:43:59;;;;;;;39.03;16.63;;;;;;;3.75;100.00;102369.69;5208043;28;20501;-81
2022/01/14 04:46:49;;;;;;;37.92;15.95;;;;;;;3.84;100.00;102356.94;5211762;28;20155;-83
2022/01/14 04:49:19;;;;;;;40.53;16.00;;;;;;;3.77;100.00;102355.94;5209062;28;20076;-83
2022/01/14 04:51:49;;;;;;;41.10;15.90;;;;;;;3.81;100.00;102347.41;5209403;28;20470;-81
2022/01/14 04:54:19;;;;;;;42.95;16.95;;;;;;;3.80;100.00;102350.81;5212162;28;20038;-78
2022/01/14 04:56:50;;;;;;;40.22;16.65;;;;;;;3.75;100.00;102344.69;5209072;28;20029;-81
2022/01/14 04:59:22;;;;;;;44.15;17.98;;;;;;;3.76;100.00;102343.84;5207617;28;20125;-83
2022/01/14 05:01:56;;;;;;;38.45;16.00;;;;;;;3.79;100.00;102336.16;5204135;28;20088;-82
2022/01/14 05:04:26;;;;;;;41.35;15.65;;;;;;;3.86;100.00;102335.44;5202498;28;20060;-79
2022/01/14 05:07:01;;;;;;;40.00;16.35;;;;;;;3.75;100.00;102334.34;5211540;28;20049;-79
2022/01/14 05:09:38;;;;;;;41.55;16.92;;;;;;;3.79;100.00;102336.16;5199006;28;20441;-82
2022/01/14 05:12:10;;;;;;;45.28;17.50;;;;;;;3.84;100.00;102337.13;5208247;28;20026;-82
2022/01/14 05:14:40;;;;;;;40.10;15.95;;;;;;;3.83;100.00;102337.97;5209971;28;20060;-80
2022/01/14 05:17:10;;;;;;;41.97;17.17;;;;;;;3.94;100.00;102335.59;5208384;28;20515;-81
2022/01/14 05:19:41;;;;;;;40.30;16.40;;;;;;;3.93;100.00;102334.72;5200813;28;20399;-82
2022/01/14 05:22:11;;;;;;;40.78;17.67;;;;;;;3.92;100.00;102340.72;5208890;28;20380;-83
2022/01/14 05:24:41;;;;;;;46.65;16.80;;;;;;;3.87;100.00;102338.88;5210731;28;20470;-81
2022/01/14 05:27:11;;;;;;;42.17;16.90;;;;;;;4.09;100.00;102336.75;5212119;28;20029;-79
2022/01/14 05:29:42;;;;;;;41.72;17.52;;;;;;;3.98;100.00;102340.84;5213104;28;20026;-81
2022/01/14 05:32:14;;;;;;;47.33;17.42;;;;;;;3.99;100.00;102333.97;5206673;28;20022;-80
2022/01/14 05:34:45;;;;;;;44.08;17.05;;;;;;;3.87;100.00;102329.44;5206750;28;20032;-80
2022/01/14 05:37:15;;;;;;;42.42;16.70;;;;;;;3.93;100.00;102319.19;5217454;28;20459;-82
2022/01/14 05:39:46;;;;;;;44.90;17.02;;;;;;;4.00;100.00;102315.00;5215117;28;20103;-84
2022/01/14 05:42:17;;;;;;;42.22;17.17;;;;;;;3.95;100.00;102320.09;5192445;28;20021;-83
2022/01/14 05:44:47;;;;;;;42.53;16.40;;;;;;;3.98;100.00;102338.25;5205402;28;20040;-79
2022/01/14 05:47:17;;;;;;;44.63;17.10;;;;;;;4.01;100.00;102335.75;5211014;28;20029;-78
2022/01/14 05:49:48;;;;;;;39.88;17.77;;;;;;;3.96;100.00;102324.41;5209141;28;20021;-81
2022/01/14 05:52:19;;;;;;;44.42;17.02;;;;;;;4.03;100.00;102323.72;5202528;28;20029;-80
2022/01/14 05:54:53;;;;;;;41.08;16.90;;;;;;;4.09;100.00;102321.22;5212154;28;20147;-81
2022/01/14 05:57:23;;;;;;;44.40;17.80;;;;;;;4.02;100.00;102314.22;5214537;28;20063;-81
2022/01/14 05:59:54;;;;;;;38.97;17.05;;;;;;;4.03;100.00;102305.59;5202198;28;20017;-79
2022/01/14 06:02:24;;;;;;;42.58;18.27;;;;;;;4.15;100.00;102305.81;5207795;28;20028;-81
2022/01/14 06:04:54;;;;;;;42.75;16.83;;;;;;;4.08;100.00;102291.03;5203397;28;20017;-81
2022/01/14 06:07:24;;;;;;;40.63;16.75;;;;;;;4.05;100.00;102283.22;5207918;28;20220;-79
2022/01/14 06:09:55;;;;;;;38.92;16.55;;;;;;;4.04;100.00;102271.13;5194047;28;20025;-79
2022/01/14 06:12:25;;;;;;;40.55;16.50;;;;;;;4.14;100.00;102279.94;5207650;28;20491;-81
2022/01/14 06:14:55;;;;;;;40.08;17.48;;;;;;;4.20;100.00;102277.44;5206562;28;20036;-82
2022/01/14 06:17:26;;;;;;;41.35;17.23;;;;;;;4.18;100.00;102285.19;5204519;28;20068;-84
2022/01/14 06:19:56;;;;;;;43.22;17.17;;;;;;;4.11;100.00;102292.81;5209060;28;20040;-82
2022/01/14 06:22:26;;;;;;;39.30;17.50;;;;;;;4.20;100.00;102286.09;5206635;28;20543;-83
2022/01/14 06:24:58;;;;;;;37.10;16.95;;;;;;;4.20;100.00;102288.66;5201762;28;20048;-78
2022/01/14 06:27:29;;;;;;;42.08;17.85;;;;;;;4.24;100.00;102268.88;5203197;28;20036;-79
2022/01/14 06:30:00;;;;;;;40.75;17.10;;;;;;;4.16;100.00;102286.84;5202163;28;20609;-81
2022/01/14 06:32:30;;;;;;;39.88;17.33;;;;;;;4.21;100.00;102285.25;5195972;28;20025;-83
2022/01/14 06:35:01;;;;;;;35.63;15.73;;;;;;;4.32;100.00;102283.69;5201480;28;20035;-82
2022/01/14 06:37:32;;;;;;;42.08;17.42;;;;;;;4.35;100.00;102277.69;5199811;28;20055;-84
2022/01/14 06:40:03;;;;;;;41.97;17.20;;;;;;;4.30;100.00;102285.38;5199309;28;20052;-84
2022/01/14 06:42:35;;;;;;;37.70;16.55;;;;;;;4.41;100.00;102295.91;5221418;28;20106;-82
2022/01/14 06:45:06;;;;;;;41.20;16.80;;;;;;;4.39;100.00;102300.19;5217380;28;20394;-82
2022/01/14 06:47:36;;;;;;;35.67;16.17;;;;;;;4.42;100.00;102319.25;5201906;28;20042;-85
2022/01/14 06:50:07;;;;;;;38.00;16.65;;;;;;;4.37;100.00;102322.59;5218975;28;20029;-85
2022/01/14 06:52:37;;;;;;;38.33;16.48;;;;;;;4.34;100.00;102319.94;5215223;28;20057;-85
2022/01/14 06:55:08;;;;;;;40.47;17.08;;;;;;;4.35;100.00;102320.00;5201749;28;20112;-81
2022/01/14 06:57:39;;;;;;;35.10;16.63;;;;;;;4.43;100.00;102312.38;5206744;28;20033;-79
2022/01/14 07:00:13;;;;;;;39.80;16.50;;;;;;;4.31;100.00;102313.00;5209333;28;20021;-79
2022/01/14 07:02:44;;;;;;;39.50;16.80;;;;;;;4.19;100.00;102317.97;5209144;28;20041;-79
2022/01/14 07:05:14;;;;;;;40.83;17.30;;;;;;;4.34;100.00;102318.25;5200328;28;20471;-79
2022/01/14 07:07:44;;;;;;;44.25;17.00;;;;;;;4.26;100.00;102325.00;5217319;28;20079;-81
2022/01/14 07:10:15;;;;;;;37.25;16.50;;;;;;;4.32;100.00;102319.91;5200692;28;20017;-79
2022/01/14 07:12:45;;;;;;;40.47;17.58;;;;;;;4.28;100.00;102333.66;5212156;28;20571;-79
2022/01/14 07:15:17;;;;;;;39.22;16.77;;;;;;;4.29;100.00;102324.19;5205166;28;20056;-79
2022/01/14 07:17:47;;;;;;;36.67;15.95;;;;;;;4.33;100.00;102332.00;5207496;28;20029;-79
2022/01/14 07:20:18;;;;;;;38.65;17.00;;;;;;;4.34;100.00;102333.78;5188007;28;20021;-79
2022/01/14 07:22:48;;;;;;;36.38;17.05;;;;;;;4.24;100.00;102329.28;5204623;28;20031;-79
2022/01/14 07:25:19;;;;;;;40.38;17.08;;;;;;;4.26;100.00;102335.34;5202222;28;20129;-79
2022/01/14 07:27:50;;;;;;;40.03;16.60;;;;;;;4.18;100.00;102339.53;5207491;28;20719;-79
2022/01/14 07:30:20;;;;;;;35.90;16.38;;;;;;;4.24;100.00;102341.31;5210804;28;20475;-79
2022/01/14 07:32:51;;;;;;;36.28;16.90;;;;;;;4.26;100.00;102340.53;5212216;28;20029;-79
2022/01/14 07:35:21;;;;;;;38.45;16.67;;;;;;;4.25;100.00;102337.88;5212460;28;20446;-79
2022/01/14 07:37:51;;;;;;;35.95;15.73;;;;;;;4.28;100.00;102338.81;5211477;28;20025;-79
2022/01/14 07:40:21;;;;;;;40.55;16.23;;;;;;;4.17;100.00;102355.88;5207667;28;20421;-79
2022/01/14 07:42:52;;;;;;;39.33;17.27;;;;;;;4.19;100.00;102346.44;5206490;28;20071;-79
2022/01/14 07:45:22;;;;;;;36.65;16.92;;;;;;;4.21;100.00;102352.50;5207501;28;20028;-79
2022/01/14 07:47:52;;;;;;;39.70;15.95;;;;;;;4.33;100.00;102368.25;5208183;28;20025;-79
2022/01/14 07:50:23;;;;;;;39.75;17.33;;;;;;;4.42;100.00;102371.00;5209725;28;20025;-79
2022/01/14 07:52:53;;;;;;;40.53;16.80;;;;;;;4.32;100.00;102371.66;5205693;28;20025;-79
2022/01/14 07:55:23;;;;;;;34.95;15.07;;;;;;;4.29;100.00;102375.94;5198762;28;20029;-79
2022/01/14 07:57:54;;;;;;;38.42;16.60;;;;;;;4.40;100.00;102383.06;5200341;28;20029;-79
2022/01/14 08:00:24;;;;;;;41.28;16.55;;;;;;;4.39;100.00;102383.91;5212034;28;20501;-79
2022/01/14 08:02:54;;;;;;;38.13;16.92;;;;;;;4.31;100.00;102379.44;5209865;28;20028;-79
2022/01/14 08:05:25;;;;;;;40.90;16.42;;;;;;;4.36;100.00;102383.84;5210237;28;20532;-79
2022/01/14 08:07:58;;;;;;;37.05;15.60;;;;;;;4.43;100.00;102385.69;5209503;28;20037;-79
2022/01/14 08:10:28;;;;;;;35.80;16.63;;;;;;;4.45;100.00;102394.34;5207592;28;20029;-79
2022/01/14 08:12:58;;;;;;;34.15;16.00;;;;;;;4.40;100.00;102401.16;5208991;28;20044;-79
2022/01/14 08:15:29;;;;;;;40.55;17.20;;;;;;;4.39;100.00;102394.25;5212370;28;20029;-79
2022/01/14 08:18:01;;;;;;;34.38;15.48;;;;;;;4.42;100.00;102398.59;5209070;28;20033;-79
2022/01/14 08:20:32;;;;;;;37.00;15.88;;;;;;;4.47;100.00;102397.84;5204664;28;20037;-79
2022/01/14 08:23:02;;;;;;;38.55;15.75;;;;;;;4.36;100.00;102407.16;5206228;28;20028;-79
2022/01/14 08:25:33;;;;;;;36.92;16.35;;;;;;;4.44;100.00;102408.16;5203819;28;20025;-79
2022/01/14 08:28:03;;;;;;;35.05;16.30;;;;;;;4.49;100.00;102406.50;5207807;28;20072;-79
2022/01/14 08:30:33;;;;;;;37.08;16.63;;;;;;;4.47;100.00;102407.34;5211064;28;20025;-79
2022/01/14 08:33:04;;;;;;;36.60;16.92;;;;;;;4.49;100.00;102406.50;5208228;28;20029;-79
2022/01/14 08:35:34;;;;;;;39.65;16.42;;;;;;;4.55;100.00;102410.91;5211535;28;20025;-79
2022/01/14 08:38:04;;;;;;;38.83;17.25;;;;;;;4.45;100.00;102416.78;5213270;28;20053;-81
2022/01/14 08:40:35;;;;;;;42.33;17.27;;;;;;;4.49;100.00;102416.00;5207888;28;20112;-81
2022/01/14 08:43:06;;;;;;;38.10;17.35;;;;;;;4.56;100.00;102408.38;5211525;28;20033;-82
2022/01/14 08:45:37;;;;;;;34.60;16.73;;;;;;;4.45;100.00;102404.72;5209093;28;20033;-78
2022/01/14 08:48:07;;;;;;;36.05;16.83;;;;;;;4.55;100.00;102404.03;5211537;28;20029;-84
2022/01/14 08:50:39;;;;;;;39.45;17.67;;;;;;;4.62;100.00;102400.69;5208816;28;20471;-79
2022/01/14 08:53:13;;;;;;;41.35;16.77;;;;;;;4.59;100.00;102399.75;5204134;28;20530;-79
2022/01/14 08:55:43;;;;;;;41.05;18.13;;;;;;;4.53;100.00;102408.31;5211348;28;20060;-81
2022/01/14 08:58:14;;;;;;;39.55;17.67;;;;;;;4.59;100.00;102408.41;5208599;28;20463;-79
2022/01/14 09:00:44;;;;;;;41.33;16.63;;;;;;;4.63;100.00;102404.19;5212240;28;20036;-78
2022/01/14 09:03:15;;;;;;;39.03;17.50;;;;;;;4.58;100.00;102416.16;5213387;28;20028;-80
2022/01/14 09:05:45;;;;;;;45.70;18.10;;;;;;;4.64;100.00;102405.91;5215319;28;20047;-79
2022/01/14 09:08:15;;;;;;;35.83;16.70;;;;;;;4.72;100.00;102394.84;5217534;28;20025;-79
2022/01/14 09:10:45;;;;;;;38.63;17.95;;;;;;;4.64;100.00;102382.63;5214392;28;20032;-79
2022/01/14 09:13:17;;;;;;;36.55;17.50;;;;;;;4.71;100.00;102380.16;5213968;28;20021;-82
2022/01/14 09:15:48;;;;;;;39.78;17.25;;;;;;;4.63;100.00;102392.09;5213183;28;20134;-79
2022/01/14 09:18:18;;;;;;;42.30;18.23;;;;;;;4.69;100.00;102387.03;5214456;28;20551;-80
2022/01/14 09:20:48;;;;;;;39.38;17.70;;;;;;;4.76;100.00;102387.97;5213134;28;20041;-78
2022/01/14 09:23:24;;;;;;;40.78;17.65;;;;;;;4.85;100.00;102385.56;5207290;28;20048;-79
2022/01/14 09:25:55;;;;;;;40.45;17.35;;;;;;;4.92;100.00;102393.47;5207548;28;20487;-80
2022/01/14 09:28:26;;;;;;;44.42;18.35;;;;;;;4.92;100.00;102390.88;5214491;28;20427;-78
2022/01/14 09:30:57;;;;;;;36.85;17.48;;;;;;;4.90;100.00;102389.09;5212126;28;20159;-79
2022/01/14 09:33:27;;;;;;;40.85;17.45;;;;;;;4.89;100.00;102393.41;5215531;28;20100;-79
2022/01/14 09:35:58;;;;;;;39.75;18.80;;;;;;;4.95;100.00;102388.31;5213853;28;20028;-78
2022/01/14 09:38:28;;;;;;;38.25;18.08;;;;;;;5.06;100.00;102391.97;5219652;28;20470;-80
2022/01/14 09:40:58;;;;;;;37.60;18.27;;;;;;;5.14;100.00;102392.94;5213095;28;20107;-81
2022/01/14 09:43:31;;;;;;;40.75;19.15;;;;;;;5.11;100.00;102386.88;5212547;28;20109;-81
2022/01/14 09:46:03;;;;;;;41.25;18.75;;;;;;;5.21;100.00;102388.72;5211108;28;20418;-81
2022/01/14 09:48:34;;;;;;;37.60;18.13;;;;;;;5.25;100.00;102394.00;5212377;28;20090;-81
2022/01/14 09:51:06;;;;;;;37.95;18.48;;;;;;;5.26;100.00;102390.53;5203457;28;20482;-81
2022/01/14 09:53:36;;;;;;;42.45;18.50;;;;;;;5.21;100.00;102397.38;5197493;28;20425;-79
2022/01/14 09:56:06;;;;;;;40.97;18.50;;;;;;;5.35;100.00;102401.03;5208116;28;20029;-79
2022/01/14 09:58:40;;;;;;;40.60;19.88;;;;;;;5.32;100.00;102401.00;5215001;28;20242;-79
2022/01/14 10:01:15;;;;;;;38.35;19.48;;;;;;;5.32;100.00;102398.41;5212843;28;20030;-78
2022/01/14 10:03:51;;;;;;;37.80;19.25;;;;;;;5.42;100.00;102395.09;5211940;28;20212;-78
2022/01/14 10:06:33;;;;;;;41.72;19.23;;;;;;;5.44;100.00;102390.81;5215595;28;20406;-79
2022/01/14 10:09:21;;;;;;;38.42;18.63;;;;;;;5.44;100.00;102390.81;5215174;28;20120;-81
2022/01/14 10:12:07;;;;;;;39.22;18.95;;;;;;;5.50;100.00;102391.78;5211984;28;20461;-80
2022/01/14 10:14:57;;;;;;;41.85;17.90;;;;;;;5.54;100.00;102387.50;5208944;28;20185;-81
2022/01/14 10:17:59;;;;;;;42.50;18.90;;;;;;;5.51;100.00;102393.50;5211134;28;20036;-81
2022/01/14 10:20:37;;;;;;;38.70;18.85;;;;;;;5.56;100.00;102385.81;5203888;28;20401;-79
2022/01/14 10:23:07;;;;;;;40.78;18.98;;;;;;;5.55;100.00;102386.66;5203440;28;20387;-81
2022/01/14 10:25:38;;;;;;;41.53;19.17;;;;;;;5.46;100.00;102399.47;5206794;28;20029;-79
2022/01/14 10:28:18;;;;;;;43.53;21.30;;;;;;;5.45;100.00;102401.22;5212927;28;20418;-79
2022/01/14 10:30:49;;;;;;;45.58;20.40;;;;;;;5.56;100.00;102391.00;5212772;28;20025;-79
2022/01/14 10:33:26;;;;;;;45.75;21.27;;;;;;;5.69;100.00;102390.28;5214810;28;20056;-79
2022/01/14 10:35:57;;;;;;;39.65;19.33;;;;;;;5.68;100.00;102393.72;5214246;28;20027;-80
2022/01/14 10:38:39;;;;;;;46.67;22.83;;;;;;;5.69;100.00;102385.97;5218011;28;20057;-79
2022/01/14 10:41:09;;;;;;;41.83;19.20;;;;;;;5.75;100.00;102395.56;5209254;28;20063;-80
2022/01/14 10:43:40;;;;;;;42.88;19.58;;;;;;;5.65;100.00;102393.69;5204379;28;20426;-80
2022/01/14 10:46:10;;;;;;;42.85;20.65;;;;;;;5.72;100.00;102400.72;5213391;28;20438;-80
2022/01/14 10:48:43;;;;;;;45.15;21.48;;;;;;;5.65;100.00;102401.47;5214769;28;20037;-80
2022/01/14 10:51:17;;;;;;;45.00;19.08;;;;;;;5.57;100.00;102391.00;5212839;28;20052;-79
2022/01/14 10:53:53;;;;;;;38.33;18.65;;;;;;;5.53;100.00;102380.53;5203679;28;20049;-80
2022/01/14 10:56:27;;;;;;;41.17;18.95;;;;;;;5.58;100.00;102374.56;5209730;28;20032;-79
2022/01/14 10:58:59;;;;;;;45.15;19.55;;;;;;;5.64;100.00;102366.00;5211082;28;20021;-81
2022/01/14 11:01:31;;;;;;;40.90;19.73;;;;;;;5.61;100.00;102363.38;5202433;28;20479;-81
2022/01/14 11:04:11;;;;;;;40.83;19.77;;;;;;;5.68;100.00;102362.59;5207025;28;20093;-80
2022/01/14 11:06:41;;;;;;;47.65;20.20;;;;;;;5.77;100.00;102360.13;5211994;28;20415;-79
2022/01/14 11:09:22;;;;;;;45.30;20.42;;;;;;;5.80;100.00;102345.53;5209480;28;20025;-79
2022/01/14 11:11:52;;;;;;;44.40;20.42;;;;;;;5.81;100.00;102355.06;5208540;28;20386;-79
2022/01/14 11:14:22;;;;;;;42.65;19.58;;;;;;;5.76;100.00;102353.22;5211196;28;20033;-79
2022/01/14 11:16:52;;;;;;;39.97;19.17;;;;;;;5.76;100.00;102350.63;5210928;28;20465;-79
2022/01/14 11:19:24;;;;;;;45.35;19.23;;;;;;;6.00;100.00;102337.94;5210994;28;20025;-79
2022/01/14 11:24:47;;;;;;;40.50;18.50;;;;;;;6.09;100.00;102340.66;5203223;28;20055;-81
2022/01/14 11:27:18;;;;;;;42.20;18.83;;;;;;;5.88;100.00;102343.03;5212167;28;20025;-79
2022/01/14 11:29:49;;;;;;;41.25;18.48;;;;;;;5.89;100.00;102343.03;5210368;28;20033;-80
2022/01/14 11:32:19;;;;;;;46.78;18.30;;;;;;;5.92;100.00;102329.22;5201873;28;20033;-78
2022/01/14 11:34:50;;;;;;;42.90;19.17;;;;;;;5.95;100.00;102319.72;5212314;28;20033;-79
2022/01/14 11:37:31;;;;;;;37.25;17.67;;;;;;;5.90;100.00;102325.75;5215923;28;20231;-79
2022/01/14 11:40:08;;;;;;;42.10;19.10;;;;;;;5.96;100.00;102350.03;5208078;28;20037;-79
2022/01/14 11:42:41;;;;;;;39.22;19.77;;;;;;;6.00;100.00;102366.50;5211782;28;20064;-79
2022/01/14 11:45:17;;;;;;;42.22;18.88;;;;;;;5.83;100.00;102355.03;5211525;28;20021;-80
2022/01/14 11:47:48;;;;;;;45.35;19.98;;;;;;;5.75;100.00;102354.06;5212671;28;20043;-79
2022/01/14 11:50:18;;;;;;;41.45;19.60;;;;;;;5.73;100.00;102358.38;5202487;28;20135;-79
2022/01/14 11:52:50;;;;;;;46.72;19.70;;;;;;;5.91;100.00;102366.41;5210324;28;20025;-81
2022/01/14 11:55:21;;;;;;;41.45;18.83;;;;;;;5.82;100.00;102349.00;5214167;28;20024;-80
2022/01/14 11:57:59;;;;;;;45.60;19.30;;;;;;;5.89;100.00;102344.75;5205484;28;20083;-78
2022/01/14 12:00:41;;;;;;;41.38;18.83;;;;;;;5.88;100.00;102340.44;5189279;28;20295;-80
2022/01/14 12:03:14;;;;;;;40.25;18.17;;;;;;;5.79;100.00;102337.72;5208429;28;20048;-80